»·PEaware :: N5627E KSNA-KSBA

N5627E :: KSNA-KSBA

FLIGHT INFORMATION

Flight Status: Arrived
Operator: Privately registered:
United States
More flights under this callsign
Pilot: Jeb B. (17306)
Aircraft: Unknown
(E50P)
More flights by this aircraft type
Origin: KSNA John Wayne-Orange Co
United States
Destination: KSBA Santa Barbara Mun
United States
More flights between these airports :: More routes between these airports
Route: +CHANL3 SXC V208 VTU KWAG KSBA
File this flight plan on PilotEdge
Remarks:
Altitude:
(Current/Filed)
8,000ft
Speed:
(Current/Filed)
275kts
Departed: 04-Jan-18 10:10 AM
Arrived: 04-Jan-18 10:56 AM
Distance/Time
Traveled:
108nm/0:45
Distance/Time
To Go:
Arrived

Flight Plot

Page will automatically refresh every two minutes.

Flight plan parsing failed; only flown route is shown


Map Options




Map Legend


Flown Route
Filed Route
Departure Airport
Arrival Airport
Navaid (VOR, NDB)
Fix

Horizontal Profiles

Position Reports

Time Latitude Longitude Heading Altitude Ground
Speed
04-Jan-18 10:04 33.674053 -117.872069 118 63ft 0kts
04-Jan-18 10:05 33.674053 -117.872069 118 63ft 0kts
04-Jan-18 10:06 33.674053 -117.872069 118 63ft 0kts
04-Jan-18 10:07 33.674053 -117.872069 118 63ft 0kts
04-Jan-18 10:08 33.674053 -117.872069 118 63ft 0kts
04-Jan-18 10:09 33.674053 -117.872069 118 63ft 0kts
04-Jan-18 10:10 33.674053 -117.872069 118 63ft 0kts
04-Jan-18 10:11 33.677507 -117.869192 26 63ft 26kts
04-Jan-18 10:12 33.681955 -117.866040 95 63ft 0kts
04-Jan-18 10:13 33.681955 -117.866040 95 63ft 0kts
04-Jan-18 10:14 33.681955 -117.866040 95 63ft 0kts
04-Jan-18 10:15 33.681955 -117.866040 95 63ft 0kts
04-Jan-18 10:16 33.670727 -117.871961 207 263ft 156kts
04-Jan-18 10:17 33.613849 -117.897247 188 1358ft 214kts
04-Jan-18 10:18 33.563486 -117.916957 213 2375ft 180kts
04-Jan-18 10:19 33.507142 -117.961452 213 3847ft 288kts
04-Jan-18 10:20 33.439671 -118.013889 213 5305ft 296kts
04-Jan-18 10:21 33.371986 -118.065247 213 6741ft 295kts
04-Jan-18 10:22 33.316677 -118.130193 263 8182ft 290kts
04-Jan-18 10:23 33.341323 -118.213873 286 9552ft 287kts
04-Jan-18 10:24 33.359510 -118.308392 279 9964ft 308kts
04-Jan-18 10:25 33.373428 -118.403977 278 9961ft 303kts
04-Jan-18 10:26 33.396359 -118.500931 312 9955ft 313kts
04-Jan-18 10:27 33.467653 -118.555863 313 9959ft 302kts
04-Jan-18 10:28 33.522570 -118.630190 308 9959ft 298kts
04-Jan-18 10:29 33.573545 -118.702966 307 9962ft 297kts
04-Jan-18 10:30 33.626254 -118.778511 307 10000ft 296kts
04-Jan-18 10:31 33.678777 -118.853925 307 9991ft 296kts
04-Jan-18 10:32 33.732182 -118.930778 307 9983ft 310kts
04-Jan-18 10:33 33.788040 -119.006119 326 9972ft 308kts
04-Jan-18 10:34 33.873006 -119.023972 351 9976ft 318kts
04-Jan-18 10:35 33.961222 -119.033339 352 9976ft 321kts
04-Jan-18 10:36 34.039525 -119.066224 299 9624ft 303kts
04-Jan-18 10:37 34.074916 -119.154561 304 8441ft 293kts
04-Jan-18 10:38 34.113641 -119.215501 307 7958ft 203kts
04-Jan-18 10:39 34.148188 -119.268201 306 7965ft 202kts
04-Jan-18 10:40 34.165167 -119.331342 282 7965ft 198kts
04-Jan-18 10:41 34.179748 -119.395337 282 7965ft 197kts
04-Jan-18 10:42 34.194128 -119.458669 282 7468ft 203kts
04-Jan-18 10:43 34.236419 -119.490935 352 6016ft 200kts
04-Jan-18 10:44 34.284271 -119.516673 291 4559ft 199kts
04-Jan-18 10:45 34.285806 -119.576315 272 4060ft 145kts
04-Jan-18 10:46 34.285568 -119.631420 272 4069ft 170kts
04-Jan-18 10:47 34.286736 -119.685335 276 4075ft 169kts
04-Jan-18 10:48 34.291015 -119.743056 277 4075ft 174kts
04-Jan-18 10:49 34.295562 -119.801728 277 4075ft 176kts
04-Jan-18 10:50 34.300115 -119.860173 277 4075ft 174kts
04-Jan-18 10:51 34.304628 -119.918124 277 4075ft 173kts
04-Jan-18 10:52 34.309153 -119.976084 277 4076ft 177kts
04-Jan-18 10:53 34.314801 -120.036499 277 4093ft 184kts
04-Jan-18 10:54 34.323367 -120.097737 295 4093ft 188kts
04-Jan-18 10:55 34.370897 -120.117657 352 3999ft 191kts
04-Jan-18 10:56 34.415129 -120.108087 51 3998ft 165kts
04-Jan-18 10:57 34.423413 -120.057199 91 3398ft 165kts
04-Jan-18 10:58 34.424279 -120.002081 89 2447ft 166kts
04-Jan-18 10:59 34.425426 -119.951301 89 1609ft 133kts
04-Jan-18 11:00 34.426306 -119.910678 89 949ft 112kts
04-Jan-18 11:01 34.427259 -119.869460 89 267ft 113kts
04-Jan-18 11:02 34.427688 -119.843110 95 16ft 29kts
04-Jan-18 11:03 34.428625 -119.841982 346 17ft 1kts
04-Jan-18 11:04 34.429165 -119.845034 306 16ft 10kts
04-Jan-18 11:05 34.429185 -119.845461 147 17ft 0kts
04-Jan-18 11:06 34.429185 -119.845461 147 17ft 0kts

Navigation Log

Ident Type
Flight plan parsing failed, navigation log unavailable